Time;durP1;ratioP1;P1;durP2;ratioP2;P2;SDS_P1;SDS_P2;PMS_P1;PMS_P2;Temp;Humidity;BMP_temperature;BMP_pressure;BME280_temperature;BME280_humidity;BME280_pressure;Samples;Min_cycle;Max_cycle;Signal;HPM_P1;HPM_P2
2022/09/22 00:01:27;;;;;;;5.32;3.20;;;7.40;99.90;;;;;;4810683;29;20118;-66
2022/09/22 00:04:02;;;;;;;5.43;3.30;;;7.40;99.90;;;;;;4805767;29;20047;-67
2022/09/22 00:06:34;;;;;;;3.40;3.10;;;7.40;99.90;;;;;;4807970;29;20045;-67
2022/09/22 00:09:01;;;;;;;5.57;3.20;;;7.30;99.90;;;;;;4808737;29;20054;-67
2022/09/22 00:11:34;;;;;;;5.22;3.40;;;7.30;99.90;;;;;;4808108;29;20508;-67
2022/09/22 00:14:15;;;;;;;4.28;3.25;;;7.30;99.90;;;;;;4820085;29;20088;-67
2022/09/22 00:16:43;;;;;;;5.43;3.50;;;7.30;99.90;;;;;;4826152;29;20058;-67
2022/09/22 00:19:12;;;;;;;4.07;3.30;;;7.30;99.90;;;;;;4826533;29;20050;-66
2022/09/22 00:21:38;;;;;;;7.75;3.45;;;7.30;99.90;;;;;;4826018;29;20058;-67
2022/09/22 00:24:06;;;;;;;4.38;3.17;;;7.20;99.90;;;;;;4809950;29;20133;-67
2022/09/22 00:26:33;;;;;;;6.07;3.30;;;7.20;99.90;;;;;;4826402;29;20057;-67
2022/09/22 00:29:00;;;;;;;5.10;3.60;;;7.20;99.90;;;;;;4806794;29;20141;-66
2022/09/22 00:31:27;;;;;;;7.38;3.67;;;7.20;99.90;;;;;;4821072;29;20065;-66
2022/09/22 00:33:53;;;;;;;5.25;3.30;;;7.20;99.90;;;;;;4825875;29;20050;-67
2022/09/22 00:36:22;;;;;;;5.18;3.40;;;7.20;99.90;;;;;;4809211;29;20042;-67
2022/09/22 00:38:51;;;;;;;4.97;3.50;;;7.10;99.90;;;;;;4826014;29;20146;-66
2022/09/22 00:41:24;;;;;;;6.20;3.30;;;7.10;99.90;;;;;;4809566;29;20066;-67
2022/09/22 00:44:15;;;;;;;3.90;3.50;;;7.10;99.90;;;;;;4825865;29;20480;-67
2022/09/22 00:46:43;;;;;;;5.00;3.20;;;7.10;99.90;;;;;;4809564;29;20336;-67
2022/09/22 00:49:11;;;;;;;4.45;3.30;;;7.00;99.90;;;;;;4809269;29;20058;-67
2022/09/22 00:51:40;;;;;;;4.25;3.22;;;7.00;99.90;;;;;;4819630;29;20046;-67
2022/09/22 00:54:13;;;;;;;4.38;3.38;;;7.00;99.90;;;;;;4791371;29;20087;-67
2022/09/22 00:56:52;;;;;;;3.60;3.00;;;7.00;99.90;;;;;;4802793;29;20455;-67
2022/09/22 00:59:22;;;;;;;6.22;3.20;;;7.00;99.90;;;;;;4824999;29;20054;-67
2022/09/22 01:01:47;;;;;;;4.75;3.05;;;7.00;99.90;;;;;;4823498;29;20054;-67
2022/09/22 01:04:15;;;;;;;3.78;3.10;;;6.90;99.90;;;;;;4822962;29;20042;-67
2022/09/22 01:06:40;;;;;;;5.90;3.25;;;6.90;99.90;;;;;;4809125;29;20103;-67
2022/09/22 01:09:07;;;;;;;3.55;3.10;;;6.90;99.90;;;;;;4822280;29;20050;-68
2022/09/22 01:11:33;;;;;;;3.80;3.17;;;6.90;99.90;;;;;;4807587;29;20059;-67
2022/09/22 01:14:31;;;;;;;4.80;3.00;;;6.90;99.90;;;;;;4791348;29;20051;-67
2022/09/22 01:17:28;;;;;;;3.88;3.05;;;6.80;99.90;;;;;;4816207;29;20094;-67
2022/09/22 01:20:13;;;;;;;3.40;3.10;;;6.80;99.90;;;;;;4825276;29;20046;-67
2022/09/22 01:23:05;;;;;;;4.00;2.90;;;6.80;99.90;;;;;;4824502;29;20061;-68
2022/09/22 01:26:07;;;;;;;3.63;2.75;;;6.80;99.90;;;;;;4809557;29;20395;-67
2022/09/22 01:28:41;;;;;;;4.00;2.90;;;6.80;99.90;;;;;;4824773;29;20069;-68
2022/09/22 01:31:16;;;;;;;5.32;3.08;;;6.80;99.90;;;;;;4825615;29;20388;-67
2022/09/22 01:33:56;;;;;;;5.70;3.42;;;6.70;99.90;;;;;;4825301;29;20069;-68
2022/09/22 01:36:48;;;;;;;4.30;3.40;;;6.70;99.90;;;;;;4824774;29;20085;-68
2022/09/22 01:39:38;;;;;;;3.42;2.78;;;6.70;99.90;;;;;;4824966;29;20129;-68
2022/09/22 01:42:27;;;;;;;4.20;2.67;;;6.70;99.90;;;;;;4808388;29;20066;-68
2022/09/22 01:45:00;;;;;;;5.10;3.50;;;6.60;99.90;;;;;;4825065;29;20093;-68
2022/09/22 01:47:43;;;;;;;4.20;3.33;;;6.60;99.90;;;;;;4824839;29;20082;-68
2022/09/22 01:50:40;;;;;;;3.65;3.00;;;6.60;99.90;;;;;;4825570;29;20356;-67
2022/09/22 01:53:11;;;;;;;5.00;2.90;;;6.60;99.90;;;;;;4812285;29;20046;-68
2022/09/22 01:56:04;;;;;;;6.43;3.10;;;6.60;99.90;;;;;;4805322;29;20054;-68
2022/09/22 01:59:03;;;;;;;3.85;3.05;;;6.60;99.90;;;;;;4790501;29;20058;-68
2022/09/22 02:02:09;;;;;;;3.53;2.97;;;7.00;99.90;;;;;;4790593;29;20396;-68
2022/09/22 02:04:51;;;;;;;4.53;3.28;;;6.50;99.90;;;;;;4792826;29;20054;-68
2022/09/22 02:07:24;;;;;;;3.85;3.00;;;6.50;99.90;;;;;;4822913;29;20042;-68
2022/09/22 02:10:17;;;;;;;4.03;3.30;;;6.50;99.90;;;;;;4810081;29;20060;-68
2022/09/22 02:12:43;;;;;;;5.45;3.60;;;6.50;99.90;;;;;;4815845;29;20095;-68
2022/09/22 02:15:58;;;;;;;3.47;3.17;;;6.40;99.90;;;;;;4824766;29;20484;-68
2022/09/22 02:18:25;;;;;;;7.22;3.30;;;6.40;99.90;;;;;;4823545;29;20117;-68
2022/09/22 02:20:51;;;;;;;5.53;3.67;;;6.30;99.90;;;;;;4822703;29;20058;-67
2022/09/22 02:23:43;;;;;;;4.78;3.22;;;6.30;99.90;;;;;;4806083;29;20034;-68
2022/09/22 02:26:14;;;;;;;3.58;3.28;;;6.30;99.90;;;;;;4807702;29;20077;-68
2022/09/22 02:28:42;;;;;;;4.47;3.13;;;6.30;99.90;;;;;;4822903;29;20058;-68
2022/09/22 02:31:12;;;;;;;3.63;3.25;;;6.30;99.90;;;;;;4809092;29;20050;-68
2022/09/22 02:33:40;;;;;;;3.92;3.53;;;6.30;99.90;;;;;;4807069;29;20046;-68
2022/09/22 02:36:25;;;;;;;5.35;3.17;;;6.20;99.90;;;;;;4823329;29;20058;-68
2022/09/22 02:39:00;;;;;;;3.75;3.10;;;6.20;99.90;;;;;;4823389;29;20084;-69
2022/09/22 02:41:47;;;;;;;3.35;2.88;;;6.20;99.90;;;;;;4823096;29;20075;-68
2022/09/22 02:44:37;;;;;;;3.88;3.20;;;6.20;99.90;;;;;;4823522;29;20102;-67
2022/09/22 02:47:12;;;;;;;5.45;3.38;;;6.20;99.90;;;;;;4791314;29;20048;-68
2022/09/22 02:49:40;;;;;;;3.20;2.90;;;6.10;99.90;;;;;;4822646;29;20042;-68
2022/09/22 02:52:12;;;;;;;4.38;2.90;;;6.20;99.90;;;;;;4821955;29;20126;-68
2022/09/22 02:54:38;;;;;;;5.63;3.15;;;6.10;99.90;;;;;;4824011;29;20051;-68
2022/09/22 02:57:04;;;;;;;3.05;2.53;;;6.10;99.90;;;;;;4823963;29;20047;-68
2022/09/22 02:59:30;;;;;;;4.05;3.20;;;6.10;99.90;;;;;;4823209;29;20055;-68
2022/09/22 03:01:56;;;;;;;3.25;2.67;;;6.10;99.90;;;;;;4822694;29;20174;-68
2022/09/22 03:04:21;;;;;;;3.33;2.67;;;6.00;99.90;;;;;;4822328;29;20500;-68
2022/09/22 03:06:47;;;;;;;5.55;3.38;;;6.00;99.90;;;;;;4805543;29;21951;-67
2022/09/22 03:10:03;;;;;;;4.20;2.83;;;6.00;99.90;;;;;;4823750;29;20137;-69
2022/09/22 03:12:29;;;;;;;3.78;2.75;;;6.00;99.90;;;;;;4790894;29;20046;-68
2022/09/22 03:14:55;;;;;;;3.03;2.67;;;6.00;99.90;;;;;;4822302;29;20049;-68
2022/09/22 03:17:20;;;;;;;3.08;2.63;;;5.90;99.90;;;;;;4783706;29;20353;-68
2022/09/22 03:19:46;;;;;;;4.30;2.88;;;5.90;99.90;;;;;;4786162;29;20053;-68
2022/09/22 03:22:11;;;;;;;4.22;3.00;;;5.90;99.90;;;;;;4807362;29;20049;-68
2022/09/22 03:24:37;;;;;;;6.47;2.80;;;5.90;99.90;;;;;;4803382;29;20050;-68
2022/09/22 03:27:02;;;;;;;7.57;2.70;;;5.90;99.90;;;;;;4820830;29;20057;-68
2022/09/22 03:29:28;;;;;;;4.78;2.95;;;5.90;99.90;;;;;;4826638;29;20092;-68
2022/09/22 03:31:54;;;;;;;4.72;2.97;;;5.90;99.90;;;;;;4810292;29;20046;-67
2022/09/22 03:34:19;;;;;;;3.08;2.78;;;5.90;99.90;;;;;;4795718;29;20095;-68
2022/09/22 03:36:45;;;;;;;3.42;3.10;;;5.80;99.90;;;;;;4825351;29;20047;-68
2022/09/22 03:39:10;;;;;;;4.55;3.30;;;5.80;99.90;;;;;;4810514;29;20058;-68
2022/09/22 03:41:36;;;;;;;2.80;2.60;;;5.90;99.90;;;;;;4809137;29;20054;-68
2022/09/22 03:44:03;;;;;;;3.63;3.25;;;5.80;99.90;;;;;;4826317;29;20058;-68
2022/09/22 03:46:29;;;;;;;3.00;2.70;;;5.80;99.90;;;;;;4824965;29;20042;-68
2022/09/22 03:48:55;;;;;;;5.13;3.20;;;5.80;99.90;;;;;;4827011;29;20060;-68
2022/09/22 03:51:21;;;;;;;3.70;3.10;;;5.80;99.90;;;;;;4809778;29;20042;-68
2022/09/22 04:14:20;;;;;;;8.32;4.40;;;5.70;99.90;;;;;;4797804;29;20054;-68
2022/09/22 04:17:36;;;;;;;8.55;3.90;;;5.70;99.90;;;;;;4807637;29;20047;-68
2022/09/22 04:20:29;;;;;;;7.68;3.90;;;5.70;99.90;;;;;;4806782;29;20417;-67
2022/09/22 04:22:55;;;;;;;7.93;4.68;;;5.70;99.90;;;;;;4806459;29;20043;-67
2022/09/22 04:25:22;;;;;;;7.00;5.25;;;5.70;99.90;;;;;;4807938;29;20047;-68
2022/09/22 04:27:48;;;;;;;10.15;6.53;;;5.70;99.90;;;;;;4791953;29;20428;-68
2022/09/22 04:30:39;;;;;;;6.25;5.55;;;5.60;99.90;;;;;;4791581;29;20043;-68
2022/09/22 04:33:05;;;;;;;6.05;4.75;;;5.70;99.90;;;;;;4806081;29;20057;-68
2022/09/22 04:35:31;;;;;;;5.45;4.88;;;5.70;99.90;;;;;;4806842;29;20043;-68
2022/09/22 04:37:57;;;;;;;9.43;5.63;;;5.70;99.90;;;;;;4806296;29;20504;-67
2022/09/22 04:40:23;;;;;;;8.65;6.38;;;5.60;99.90;;;;;;4807824;29;20051;-68
2022/09/22 04:42:50;;;;;;;8.10;7.15;;;5.60;99.90;;;;;;4807649;29;20084;-68
2022/09/22 04:45:15;;;;;;;9.35;8.40;;;5.60;99.90;;;;;;4806133;29;20473;-67
2022/09/22 04:47:49;;;;;;;10.57;7.47;;;5.60;99.90;;;;;;4807203;29;20062;-67
2022/09/22 04:50:15;;;;;;;12.10;8.70;;;5.60;99.90;;;;;;4807874;29;20057;-67
2022/09/22 04:53:06;;;;;;;11.02;8.05;;;5.60;99.90;;;;;;4795125;29;20046;-67
2022/09/22 04:55:32;;;;;;;11.18;8.52;;;5.60;99.90;;;;;;4803237;29;20125;-68
2022/09/22 04:57:58;;;;;;;13.20;9.23;;;5.60;99.90;;;;;;4787892;29;20055;-67
2022/09/22 05:00:26;;;;;;;14.73;9.10;;;5.60;99.90;;;;;;4796399;29;20051;-68
2022/09/22 05:02:52;;;;;;;12.25;9.77;;;5.60;99.90;;;;;;4788933;29;20185;-68
2022/09/22 05:05:18;;;;;;;11.88;9.32;;;5.60;99.90;;;;;;4807074;29;20133;-68
2022/09/22 05:07:52;;;;;;;10.20;9.18;;;5.60;99.90;;;;;;4802974;29;20118;-68
2022/09/22 05:10:17;;;;;;;11.82;10.63;;;5.60;99.90;;;;;;4788921;29;20105;-68
2022/09/22 05:12:43;;;;;;;18.00;10.23;;;5.60;99.90;;;;;;4800776;29;20093;-68
2022/09/22 05:15:13;;;;;;;14.95;9.68;;;5.60;99.90;;;;;;4790688;29;20563;-68
2022/09/22 05:17:49;;;;;;;11.43;9.95;;;5.60;99.90;;;;;;4807145;29;20054;-68
2022/09/22 05:20:38;;;;;;;12.20;9.90;;;5.50;99.90;;;;;;4806968;29;20078;-68
2022/09/22 05:23:06;;;;;;;10.70;9.32;;;5.60;99.90;;;;;;4804448;29;20085;-68
2022/09/22 05:25:31;;;;;;;10.05;9.00;;;5.60;99.90;;;;;;4800479;29;20468;-67
2022/09/22 05:27:57;;;;;;;10.43;9.02;;;5.60;99.90;;;;;;4803350;29;20119;-68
2022/09/22 05:30:25;;;;;;;13.68;9.65;;;5.60;99.90;;;;;;4805230;29;20165;-67
2022/09/22 05:32:52;;;;;;;11.18;10.18;;;5.60;99.90;;;;;;4799957;29;20084;-67
2022/09/22 05:35:20;;;;;;;10.52;9.02;;;5.60;99.90;;;;;;4804813;29;20176;-67
2022/09/22 05:37:56;;;;;;;13.07;10.70;;;5.60;99.90;;;;;;4802292;29;20058;-68
2022/09/22 05:40:24;;;;;;;12.15;10.07;;;5.60;99.90;;;;;;4805275;29;20047;-67
2022/09/22 05:42:52;;;;;;;12.55;10.23;;;5.60;99.90;;;;;;4800090;29;20051;-67
2022/09/22 05:45:20;;;;;;;18.50;10.93;;;5.60;99.90;;;;;;4799485;29;20453;-67
2022/09/22 05:47:46;;;;;;;13.10;11.70;;;5.60;99.90;;;;;;4801151;29;20463;-67
2022/09/22 05:50:14;;;;;;;16.73;11.38;;;5.70;99.90;;;;;;4804400;29;20046;-68
2022/09/22 05:52:40;;;;;;;15.05;12.43;;;5.70;99.90;;;;;;4805981;29;20050;-68
2022/09/22 05:55:08;;;;;;;13.00;11.55;;;5.70;99.90;;;;;;4797030;29;20059;-68
2022/09/22 05:57:35;;;;;;;16.85;13.35;;;5.70;99.90;;;;;;4797966;29;20082;-68
2022/09/22 06:00:04;;;;;;;12.40;11.13;;;5.70;99.90;;;;;;4797151;29;20050;-68
2022/09/22 06:02:30;;;;;;;12.77;10.35;;;5.80;99.90;;;;;;4797132;29;20067;-68
2022/09/22 06:04:56;;;;;;;14.10;11.20;;;5.80;99.90;;;;;;4798783;29;20052;-67
2022/09/22 06:07:25;;;;;;;13.55;10.73;;;5.80;99.90;;;;;;4802456;29;20384;-68
2022/09/22 06:09:51;;;;;;;11.20;10.10;;;5.80;99.90;;;;;;4806667;29;20039;-68
2022/09/22 06:12:17;;;;;;;14.48;11.23;;;5.80;99.90;;;;;;4798886;29;20395;-67
2022/09/22 06:14:43;;;;;;;15.90;11.45;;;5.90;99.90;;;;;;4803320;29;20499;-67
2022/09/22 06:17:09;;;;;;;15.95;11.32;;;6.00;99.90;;;;;;4790295;29;20103;-69
2022/09/22 06:19:35;;;;;;;14.40;10.82;;;6.00;99.90;;;;;;4806521;29;20042;-68
2022/09/22 06:22:01;;;;;;;13.75;11.30;;;6.10;99.90;;;;;;4804828;29;20310;-67
2022/09/22 06:24:27;;;;;;;13.23;10.40;;;6.20;99.90;;;;;;4804374;29;20043;-68
2022/09/22 06:26:53;;;;;;;11.63;10.20;;;6.30;99.90;;;;;;4797759;29;20354;-68
2022/09/22 06:29:18;;;;;;;13.02;11.40;;;6.50;99.90;;;;;;4806502;29;20061;-67
2022/09/22 06:31:44;;;;;;;12.63;11.30;;;6.60;99.90;;;;;;4806234;29;20107;-69
2022/09/22 06:34:10;;;;;;;12.45;11.20;;;6.70;99.90;;;;;;4805131;29;20479;-68
2022/09/22 06:36:36;;;;;;;16.42;12.52;;;6.80;99.90;;;;;;4804333;29;20138;-68
2022/09/22 06:39:03;;;;;;;12.48;11.27;;;6.90;99.90;;;;;;4805931;29;20222;-69
2022/09/22 06:41:31;;;;;;;13.95;12.57;;;7.00;99.90;;;;;;4804919;29;20062;-68
2022/09/22 06:43:57;;;;;;;13.88;12.27;;;7.10;99.90;;;;;;4806211;29;20058;-68
2022/09/22 06:46:25;;;;;;;15.98;11.88;;;7.30;99.90;;;;;;4803782;29;20042;-68
2022/09/22 06:48:56;;;;;;;14.27;12.38;;;7.30;99.90;;;;;;4805549;29;20523;-68
2022/09/22 06:51:26;;;;;;;12.27;11.07;;;7.50;99.90;;;;;;4802756;29;20134;-68
2022/09/22 06:53:53;;;;;;;16.45;12.07;;;7.60;99.90;;;;;;4803820;29;20345;-68
2022/09/22 06:56:20;;;;;;;12.25;10.82;;;7.70;99.90;;;;;;4804339;29;20538;-68
2022/09/22 06:58:48;;;;;;;15.80;11.90;;;7.80;99.90;;;;;;4805806;29;20075;-69
2022/09/22 07:01:17;;;;;;;13.02;11.70;;;7.90;99.90;;;;;;4804381;29;20524;-68
2022/09/22 07:03:44;;;;;;;13.50;12.07;;;8.00;99.90;;;;;;4805321;29;20381;-68
2022/09/22 07:06:16;;;;;;;14.25;12.63;;;8.10;99.90;;;;;;4805687;29;20043;-68
2022/09/22 07:08:42;;;;;;;16.90;11.52;;;8.20;99.90;;;;;;4805136;29;20107;-68
2022/09/22 07:11:08;;;;;;;12.25;10.50;;;8.30;99.90;;;;;;4804025;29;20055;-68
2022/09/22 07:13:37;;;;;;;11.98;10.40;;;8.40;99.90;;;;;;4803860;29;20457;-68
2022/09/22 07:16:09;;;;;;;13.35;11.20;;;8.60;99.90;;;;;;4803163;29;20071;-68
2022/09/22 07:18:39;;;;;;;13.32;11.70;;;8.60;99.90;;;;;;4801534;29;20047;-68
2022/09/22 07:21:18;;;;;;;9.93;8.88;;;8.80;99.90;;;;;;4793484;29;20477;-68
2022/09/22 07:23:44;;;;;;;11.50;9.75;;;8.90;99.90;;;;;;4800405;29;20114;-69
2022/09/22 07:26:15;;;;;;;12.50;10.55;;;9.10;99.90;;;;;;4803745;29;20602;-69
2022/09/22 07:28:41;;;;;;;11.63;10.52;;;9.20;99.90;;;;;;4804496;29;20050;-68
2022/09/22 07:31:14;;;;;;;12.00;10.35;;;9.40;99.90;;;;;;4804870;29;20038;-68
2022/09/22 07:33:41;;;;;;;11.38;10.20;;;9.50;99.90;;;;;;4803592;29;20116;-69
2022/09/22 07:36:17;;;;;;;12.27;10.48;;;9.60;99.90;;;;;;4804069;29;20053;-68
2022/09/22 07:38:45;;;;;;;10.88;9.70;;;9.70;99.90;;;;;;4804181;29;20349;-68
2022/09/22 07:41:13;;;;;;;11.68;10.57;;;9.90;99.90;;;;;;4804283;29;20484;-69
2022/09/22 07:43:40;;;;;;;9.60;8.70;;;10.00;99.90;;;;;;4805453;29;20039;-68
2022/09/22 07:46:07;;;;;;;11.63;9.85;;;10.20;99.90;;;;;;4805534;29;20047;-68
2022/09/22 07:48:46;;;;;;;10.70;9.63;;;10.30;99.90;;;;;;4803754;29;20043;-68
2022/09/22 07:51:21;;;;;;;11.00;9.93;;;10.40;99.90;;;;;;4803147;29;20141;-69
2022/09/22 07:54:05;;;;;;;11.65;9.50;;;10.60;99.90;;;;;;4817873;29;20047;-68
2022/09/22 07:56:42;;;;;;;11.05;9.57;;;10.70;99.90;;;;;;4804411;29;20039;-68
2022/09/22 07:59:09;;;;;;;11.23;10.10;;;10.90;99.90;;;;;;4805042;29;20119;-68
2022/09/22 08:01:46;;;;;;;12.35;10.13;;;11.00;99.90;;;;;;4805386;29;20404;-69
2022/09/22 08:04:30;;;;;;;10.05;8.63;;;11.20;99.90;;;;;;4804569;29;20494;-68
2022/09/22 08:06:56;;;;;;;14.07;9.20;;;11.30;99.90;;;;;;4803908;29;20129;-68
2022/09/22 08:12:27;;;;;;;11.65;9.45;;;11.60;99.90;;;;;;4794148;29;20089;-69
2022/09/22 08:14:56;;;;;;;9.93;8.93;;;11.70;99.90;;;;;;4806642;29;20062;-69
2022/09/22 08:17:48;;;;;;;8.88;8.02;;;11.80;99.90;;;;;;4802052;29;20073;-68
2022/09/22 08:20:14;;;;;;;9.20;8.40;;;12.00;99.90;;;;;;4806043;29;20042;-69
2022/09/22 08:22:41;;;;;;;9.80;8.80;;;12.10;99.90;;;;;;4801635;29;20039;-69
2022/09/22 08:25:11;;;;;;;11.23;8.10;;;12.30;99.90;;;;;;4807367;29;20073;-69
2022/09/22 08:27:38;;;;;;;9.38;8.38;;;12.40;99.90;;;;;;4804967;29;20058;-70
2022/09/22 08:30:06;;;;;;;8.45;7.68;;;12.50;99.90;;;;;;4793009;29;20562;-68
2022/09/22 08:32:34;;;;;;;10.55;7.60;;;12.70;99.90;;;;;;4797924;29;20047;-69
2022/09/22 08:35:00;;;;;;;8.93;7.00;;;12.80;99.90;;;;;;4816045;29;20042;-69
2022/09/22 08:37:26;;;;;;;11.65;7.15;;;12.90;99.90;;;;;;4812820;29;20080;-69
2022/09/22 08:39:52;;;;;;;7.93;6.95;;;13.00;99.90;;;;;;4825205;29;20054;-69
2022/09/22 08:42:21;;;;;;;8.70;7.35;;;13.20;99.90;;;;;;4814021;29;20050;-70
2022/09/22 08:51:51;;;;;;;7.63;5.82;;;13.70;99.90;;;;;;4807026;29;20356;-70
2022/09/22 08:58:22;;;;;;;6.72;5.47;;;13.90;99.90;;;;;;4806409;29;20053;-69
2022/09/22 09:01:19;;;;;;;6.32;4.97;;;14.20;99.90;;;;;;4799800;29;20039;-69
2022/09/22 09:04:29;;;;;;;5.15;4.68;;;14.20;99.90;;;;;;4800078;29;20975;-70
2022/09/22 09:07:00;;;;;;;6.63;4.25;;;14.30;99.90;;;;;;4807023;29;20049;-68
2022/09/22 09:09:42;;;;;;;5.63;4.53;;;14.50;99.90;;;;;;4807651;29;20047;-69
2022/09/22 09:12:33;;;;;;;4.20;3.80;;;14.50;99.90;;;;;;4804984;29;20134;-68
2022/09/22 09:15:26;;;;;;;5.82;4.07;;;14.70;99.90;;;;;;4804614;29;20500;-68
2022/09/22 09:17:55;;;;;;;5.82;3.20;;;14.80;99.90;;;;;;4806640;29;20061;-69
2022/09/22 09:20:34;;;;;;;5.10;3.38;;;14.90;99.90;;;;;;4807412;29;20054;-72
2022/09/22 09:23:02;;;;;;;4.57;2.95;;;15.00;99.90;;;;;;4805258;29;20377;-69
2022/09/22 09:25:38;;;;;;;4.25;3.05;;;15.10;99.90;;;;;;4804936;29;20043;-68
2022/09/22 09:28:14;;;;;;;5.75;3.25;;;15.20;99.90;;;;;;4807033;29;20058;-69
2022/09/22 09:30:48;;;;;;;5.07;3.47;;;15.30;99.90;;;;;;4807723;29;20073;-69
2022/09/22 09:33:36;;;;;;;3.28;2.97;;;15.40;99.90;;;;;;4806592;29;20376;-69
2022/09/22 09:36:02;;;;;;;6.47;3.08;;;15.50;99.90;;;;;;4805894;29;20070;-69
2022/09/22 09:38:33;;;;;;;5.68;3.00;;;15.70;99.90;;;;;;4805284;29;20098;-69
2022/09/22 09:41:13;;;;;;;6.40;2.72;;;15.70;99.90;;;;;;4806254;29;20507;-70
2022/09/22 09:48:37;;;;;;;3.75;2.60;;;15.90;99.90;;;;;;4804340;29;20038;-68
2022/09/22 09:51:35;;;;;;;5.75;2.53;;;16.10;99.90;;;;;;4790557;29;20055;-69
2022/09/22 09:54:04;;;;;;;4.22;2.50;;;16.20;99.90;;;;;;4788213;29;20046;-69
2022/09/22 09:56:32;;;;;;;7.00;2.58;;;16.20;99.90;;;;;;4804809;29;20096;-69
2022/09/22 10:01:50;;;;;;;3.88;2.50;;;16.30;99.90;;;;;;4809627;29;20047;-68
2022/09/22 10:04:27;;;;;;;3.95;2.65;;;16.30;99.90;;;;;;4804749;29;20399;-68
2022/09/22 10:06:55;;;;;;;5.15;2.58;;;16.40;99.90;;;;;;4805956;29;20046;-69
2022/09/22 10:09:26;;;;;;;3.97;2.60;;;16.40;99.90;;;;;;4805169;29;20043;-68
2022/09/22 10:12:02;;;;;;;4.20;2.50;;;16.50;99.90;;;;;;4806349;29;20061;-69
2022/09/22 10:14:33;;;;;;;6.55;2.80;;;16.90;99.90;;;;;;4805083;29;20143;-69
2022/09/22 10:16:58;;;;;;;6.18;2.78;;;16.70;99.90;;;;;;4805366;29;20535;-68
2022/09/22 10:19:33;;;;;;;3.58;2.20;;;16.70;99.90;;;;;;4806295;29;20039;-68
2022/09/22 10:22:26;;;;;;;5.20;2.75;;;16.80;99.90;;;;;;4804589;29;20053;-68
2022/09/22 10:24:54;;;;;;;3.53;1.98;;;16.90;99.90;;;;;;4778094;29;20143;-68
2022/09/22 10:27:22;;;;;;;3.20;2.60;;;16.90;99.90;;;;;;4819814;29;20065;-68
2022/09/22 10:30:21;;;;;;;3.47;2.60;;;17.00;99.90;;;;;;4805642;29;20043;-68
2022/09/22 10:33:12;;;;;;;3.17;2.50;;;17.00;99.90;;;;;;4788241;29;20048;-68
2022/09/22 10:35:40;;;;;;;6.43;3.00;;;17.10;99.90;;;;;;4797501;29;20208;-68
2022/09/22 10:38:12;;;;;;;5.70;3.10;;;17.20;99.90;;;;;;4804204;29;20757;-68
2022/09/22 10:40:41;;;;;;;3.35;2.63;;;17.10;99.90;;;;;;4805827;29;20051;-68
2022/09/22 10:43:36;;;;;;;4.72;2.90;;;17.20;99.90;;;;;;4804007;29;20427;-68
2022/09/22 10:46:22;;;;;;;5.43;3.22;;;17.10;99.90;;;;;;4780997;29;20047;-68
2022/09/22 10:49:10;;;;;;;6.10;3.30;;;17.00;99.90;;;;;;4805415;29;20047;-68
2022/09/22 10:52:18;;;;;;;4.10;2.85;;;17.10;99.90;;;;;;4808772;29;20089;-68
2022/09/22 10:54:58;;;;;;;4.88;3.40;;;17.20;99.90;;;;;;4787903;29;20059;-68
2022/09/22 10:57:50;;;;;;;5.35;3.38;;;17.40;99.90;;;;;;4799991;29;20130;-67
2022/09/22 11:00:17;;;;;;;5.00;4.35;;;17.60;99.90;;;;;;4803004;29;20104;-68
2022/09/22 11:02:48;;;;;;;6.82;4.82;;;17.70;99.90;;;;;;4792743;29;20082;-68
2022/09/22 11:14:49;;;;;;;5.28;4.40;;;17.40;98.10;;;;;;4805395;29;20051;-68
2022/09/22 11:17:17;;;;;;;7.22;4.38;;;17.50;96.20;;;;;;4786614;30;20070;-67
2022/09/22 11:20:06;;;;;;;5.90;4.50;;;17.60;99.90;;;;;;4787784;29;20074;-67
2022/09/22 11:22:56;;;;;;;7.72;5.25;;;17.70;99.90;;;;;;4793715;29;20061;-68
2022/09/22 11:25:45;;;;;;;7.32;4.82;;;18.00;84.70;;;;;;4805323;29;20073;-68
2022/09/22 11:28:35;;;;;;;8.23;4.75;;;18.00;95.30;;;;;;4803904;29;20047;-68
2022/09/22 11:31:01;;;;;;;5.32;4.55;;;17.90;91.60;;;;;;4805843;29;20051;-68
2022/09/22 11:34:21;;;;;;;6.80;4.45;;;17.90;93.40;;;;;;4805057;29;20130;-68
2022/09/22 11:37:39;;;;;;;9.45;5.15;;;18.00;81.80;;;;;;4730807;30;20044;-67
2022/09/22 11:40:31;;;;;;;6.68;4.68;;;18.10;91.30;;;;;;4774218;29;20066;-67
2022/09/22 11:43:19;;;;;;;7.25;4.30;;;18.10;90.00;;;;;;4805986;29;20054;-67
2022/09/22 11:46:14;;;;;;;7.20;4.75;;;17.90;75.10;;;;;;4804470;29;20550;-67
2022/09/22 11:49:18;;;;;;;9.77;6.03;;;17.90;83.60;;;;;;4794532;29;20082;-67
2022/09/22 11:52:01;;;;;;;10.82;5.50;;;18.00;82.30;;;;;;4762524;29;20094;-67
2022/09/22 11:54:52;;;;;;;5.20;4.35;;;18.00;81.40;;;;;;4807436;29;20053;-67
2022/09/22 11:57:22;;;;;;;6.53;5.22;;;17.90;79.90;;;;;;4807658;29;20074;-67
2022/09/22 12:00:04;;;;;;;8.80;5.32;;;17.90;84.70;;;;;;4808076;29;20043;-68
2022/09/22 12:02:54;;;;;;;5.78;5.10;;;18.00;79.80;;;;;;4806083;29;20401;-66
2022/09/22 12:05:52;;;;;;;6.38;5.10;;;18.10;80.80;;;;;;4821011;29;20099;-66
2022/09/22 12:08:21;;;;;;;8.05;5.55;;;18.20;72.90;;;;;;4744376;29;20066;-66
2022/09/22 12:10:49;;;;;;;8.30;5.10;;;18.00;79.30;;;;;;4822631;29;20055;-66
2022/09/22 12:13:18;;;;;;;8.20;4.72;;;17.80;78.50;;;;;;4808343;29;20058;-68
2022/09/22 12:16:02;;;;;;;7.15;5.90;;;17.70;81.10;;;;;;4807700;29;20372;-67
2022/09/22 12:18:45;;;;;;;5.65;4.75;;;17.80;77.60;;;;;;4806920;29;20093;-66
2022/09/22 12:21:21;;;;;;;7.90;4.65;;;17.90;75.50;;;;;;4807193;29;20129;-69
2022/09/22 12:23:49;;;;;;;5.47;4.65;;;18.20;79.00;;;;;;4808342;29;20051;-69
2022/09/22 12:26:30;;;;;;;6.25;4.72;;;18.20;80.10;;;;;;4807255;29;20077;-69
2022/09/22 12:28:58;;;;;;;5.63;4.22;;;18.40;78.10;;;;;;4807209;29;20088;-68
2022/09/22 12:31:35;;;;;;;7.18;4.38;;;18.40;77.80;;;;;;4808835;29;20103;-68
2022/09/22 12:34:04;;;;;;;6.22;4.63;;;18.50;75.00;;;;;;4808118;29;20047;-68
2022/09/22 12:36:34;;;;;;;5.38;4.38;;;18.50;75.20;;;;;;4807878;29;20047;-68
2022/09/22 12:39:07;;;;;;;6.57;4.55;;;18.60;74.40;;;;;;4808036;29;20046;-68
2022/09/22 12:41:46;;;;;;;6.85;4.18;;;18.50;71.30;;;;;;4808284;29;20051;-68
2022/09/22 12:44:16;;;;;;;6.20;4.82;;;18.50;73.40;;;;;;4808067;29;20272;-68
2022/09/22 12:46:43;;;;;;;5.68;4.18;;;18.40;73.50;;;;;;4808174;29;20366;-68
2022/09/22 12:49:15;;;;;;;6.18;4.88;;;18.40;74.30;;;;;;4807883;29;20051;-68
2022/09/22 12:51:41;;;;;;;;;;;18.30;73.20;;;;;;4808121;29;20069;-68
2022/09/22 12:54:22;;;;;;;6.35;3.72;;;18.00;71.20;;;;;;4805100;29;20331;-68
2022/09/22 12:57:01;;;;;;;5.32;4.35;;;17.80;75.50;;;;;;4815532;29;20059;-67
2022/09/22 12:59:38;;;;;;;7.18;4.40;;;17.60;79.80;;;;;;4806007;29;20051;-67
2022/09/22 13:02:10;;;;;;;5.35;3.78;;;17.50;82.50;;;;;;4806300;29;20082;-67
2022/09/22 13:04:36;;;;;;;5.18;4.07;;;17.40;91.40;;;;;;4806685;29;20457;-67
2022/09/22 13:07:23;;;;;;;5.43;4.13;;;17.40;88.10;;;;;;4790829;29;20134;-67
2022/09/22 13:10:24;;;;;;;5.68;4.95;;;17.50;81.30;;;;;;4806500;29;20393;-68
2022/09/22 13:13:01;;;;;;;6.53;4.75;;;17.70;78.00;;;;;;4801252;29;20066;-68
2022/09/22 13:15:53;;;;;;;5.18;4.68;;;18.00;76.60;;;;;;4790954;29;20054;-68
2022/09/22 13:18:30;;;;;;;4.50;4.05;;;18.10;74.30;;;;;;4807103;29;20046;-68
2022/09/22 13:20:57;;;;;;;7.45;3.50;;;18.20;74.80;;;;;;4805645;29;20043;-67
2022/09/22 13:23:23;;;;;;;6.25;3.50;;;18.30;77.50;;;;;;4805490;29;20046;-67
2022/09/22 13:25:50;;;;;;;5.03;3.55;;;18.40;75.10;;;;;;4805412;29;20119;-67
2022/09/22 13:28:41;;;;;;;4.05;3.10;;;18.40;74.40;;;;;;4804980;29;20085;-67
2022/09/22 13:31:15;;;;;;;4.53;3.25;;;18.30;74.70;;;;;;4790183;29;20093;-67
2022/09/22 13:33:41;;;;;;;3.63;2.97;;;18.30;74.10;;;;;;4803618;29;20047;-67
2022/09/22 13:36:16;;;;;;;5.15;3.22;;;18.20;75.30;;;;;;4788665;29;20498;-68
2022/09/22 13:38:45;;;;;;;4.25;3.20;;;18.20;75.50;;;;;;4806871;29;20074;-68
2022/09/22 13:41:15;;;;;;;4.13;3.17;;;18.70;77.10;;;;;;4793682;29;20070;-68
2022/09/22 13:43:44;;;;;;;4.28;3.33;;;18.30;75.30;;;;;;4806484;29;20131;-68
2022/09/22 13:46:41;;;;;;;3.47;3.17;;;18.40;74.50;;;;;;4806136;29;20046;-67
2022/09/22 13:49:41;;;;;;;4.70;2.83;;;18.40;72.60;;;;;;4805300;29;20050;-67
2022/09/22 13:52:20;;;;;;;;;;;18.40;75.40;;;;;;4804662;29;20511;-67
2022/09/22 14:03:03;;;;;;;4.35;3.40;;;17.70;79.20;;;;;;4797773;29;20420;-67
2022/09/22 14:05:32;;;;;;;5.25;3.15;;;17.50;90.40;;;;;;4805044;29;20047;-67
2022/09/22 14:08:02;;;;;;;4.80;2.85;;;17.40;92.00;;;;;;4806019;29;20100;-67
2022/09/22 14:10:28;;;;;;;6.22;3.30;;;17.40;90.20;;;;;;4787979;29;20529;-68
2022/09/22 14:12:54;;;;;;;3.83;2.97;;;17.50;84.80;;;;;;4806212;29;20118;-67
2022/09/22 14:15:46;;;;;;;4.32;3.03;;;17.60;81.70;;;;;;4804861;29;20054;-67
2022/09/22 14:18:25;;;;;;;4.68;2.90;;;17.70;81.90;;;;;;4806261;29;20493;-67
2022/09/22 14:20:52;;;;;;;5.55;2.55;;;17.90;83.70;;;;;;4804000;29;20046;-68
2022/09/22 14:23:32;;;;;;;3.63;2.40;;;18.00;86.50;;;;;;4805604;29;20047;-67
2022/09/22 14:26:01;;;;;;;6.70;2.70;;;18.00;77.00;;;;;;4803680;29;20042;-67